createdAt,value
2023-02-12T00:02:54.067Z,8.80
2023-02-12T00:07:59.166Z,8.80
2023-02-12T00:13:02.874Z,8.80
2023-02-12T00:18:06.640Z,8.80
2023-02-12T00:23:11.955Z,8.80
2023-02-12T00:28:16.351Z,8.80
2023-02-12T00:33:20.115Z,8.80
2023-02-12T00:38:25.259Z,8.80
2023-02-12T00:43:29.150Z,8.80
2023-02-12T00:48:33.021Z,8.70
2023-02-12T00:53:38.546Z,8.70
2023-02-12T00:58:44.057Z,8.70
2023-02-12T01:03:47.792Z,8.80
2023-02-12T01:08:53.752Z,8.70
2023-02-12T01:13:57.504Z,8.70
2023-02-12T01:19:01.487Z,8.70
2023-02-12T01:24:07.374Z,8.70
2023-02-12T01:29:12.148Z,8.70
2023-02-12T01:34:15.873Z,8.70
2023-02-12T01:39:21.031Z,8.70
2023-02-12T01:44:26.258Z,8.70
2023-02-12T01:49:34.981Z,8.70
2023-02-12T01:54:41.603Z,8.70
2023-02-12T01:59:48.439Z,8.70
2023-02-12T02:04:55.017Z,8.70
2023-02-12T02:10:01.223Z,8.70
2023-02-12T02:15:06.824Z,8.70
2023-02-12T02:20:49.781Z,8.60
2023-02-12T02:26:27.457Z,8.60
2023-02-12T02:31:38.950Z,8.70
2023-02-12T02:36:59.551Z,8.60
2023-02-12T02:42:10.770Z,8.60
2023-02-12T02:47:18.361Z,8.60
2023-02-12T02:52:30.981Z,8.60
2023-02-12T02:57:39.757Z,8.60
2023-02-12T03:02:51.249Z,8.60
2023-02-12T03:07:59.030Z,8.60
2023-02-12T03:13:08.360Z,8.60
2023-02-12T03:18:20.214Z,8.60
2023-02-12T03:23:27.778Z,8.60
2023-02-12T03:28:34.795Z,8.60
2023-02-12T03:33:45.641Z,8.60
2023-02-12T03:38:51.838Z,8.60
2023-02-12T03:44:00.491Z,8.60
2023-02-12T03:49:09.699Z,8.50
2023-02-12T03:54:19.238Z,8.60
2023-02-12T03:59:24.856Z,8.60
2023-02-12T04:04:30.469Z,8.50
2023-02-12T04:09:34.552Z,8.50
2023-02-12T04:14:46.703Z,8.50
2023-02-12T04:20:07.057Z,8.50
2023-02-12T04:25:21.191Z,8.50
2023-02-12T04:30:30.154Z,8.50
2023-02-12T04:35:41.834Z,8.50
2023-02-12T04:40:45.891Z,8.50
2023-02-12T04:45:49.628Z,8.50
2023-02-12T04:50:54.746Z,8.50
2023-02-12T04:55:58.573Z,8.50
2023-02-12T05:01:02.353Z,8.50
2023-02-12T05:06:09.808Z,8.50
2023-02-12T05:11:13.653Z,8.50
2023-02-12T05:16:17.639Z,8.50
2023-02-12T05:21:22.747Z,8.40
2023-02-12T05:26:26.468Z,8.50
2023-02-12T05:31:30.728Z,8.40
2023-02-12T05:36:35.779Z,8.50
2023-02-12T05:41:39.598Z,8.40
2023-02-12T05:46:43.757Z,8.50
2023-02-12T05:51:48.842Z,8.40
2023-02-12T05:56:52.565Z,8.40
2023-02-12T06:01:56.247Z,8.40
2023-02-12T06:07:01.682Z,8.40
2023-02-12T06:12:05.822Z,8.50
2023-02-12T06:17:09.495Z,8.40
2023-02-12T06:22:14.569Z,8.40
2023-02-12T06:27:18.210Z,8.40
2023-02-12T06:32:22.559Z,8.40
2023-02-12T06:37:27.903Z,8.40
2023-02-12T06:42:33.153Z,8.40
2023-02-12T06:47:36.948Z,8.40
2023-02-12T06:52:41.999Z,8.40
2023-02-12T06:57:45.785Z,8.40
2023-02-12T07:02:54.087Z,8.40
2023-02-12T07:07:59.309Z,8.40
2023-02-12T07:13:03.935Z,8.40
2023-02-12T07:18:07.645Z,8.40
2023-02-12T07:23:14.066Z,8.40
2023-02-12T07:28:17.883Z,8.30
2023-02-12T07:33:22.217Z,8.30
2023-02-12T07:38:27.338Z,8.40
2023-02-12T07:43:31.146Z,8.30
2023-02-12T07:48:34.861Z,8.40
2023-02-12T07:53:40.449Z,8.40
2023-02-12T07:58:46.263Z,8.30
2023-02-12T08:03:51.473Z,8.40
2023-02-12T08:08:58.204Z,8.40
2023-02-12T08:14:02.958Z,8.40
2023-02-12T08:19:17.509Z,8.40
2023-02-12T08:24:24.634Z,8.50
2023-02-12T08:29:30.905Z,8.50
2023-02-12T08:34:36.366Z,8.50
2023-02-12T08:39:41.686Z,8.50
2023-02-12T08:44:45.393Z,8.50
2023-02-12T08:49:49.128Z,8.50
2023-02-12T08:54:54.302Z,8.50
2023-02-12T08:59:58.020Z,8.60
2023-02-12T09:05:01.751Z,8.60
2023-02-12T09:10:08.553Z,8.60
2023-02-12T09:15:12.343Z,8.70
2023-02-12T09:20:16.381Z,8.70
2023-02-12T09:25:21.497Z,8.80
2023-02-12T09:30:25.205Z,8.80
2023-02-12T09:35:28.982Z,8.80
2023-02-12T09:40:40.616Z,8.80
2023-02-12T09:45:51.306Z,8.90
2023-02-12T09:50:57.679Z,8.90
2023-02-12T09:56:02.969Z,8.90
2023-02-12T10:01:13.936Z,9.00
2023-02-12T10:06:21.244Z,9.00
2023-02-12T10:11:53.278Z,9.00
2023-02-12T10:17:03.096Z,9.10
2023-02-12T10:22:14.333Z,9.10
2023-02-12T10:27:25.177Z,9.10
2023-02-12T10:32:33.215Z,9.20
2023-02-12T10:37:41.572Z,9.20
2023-02-12T10:42:50.252Z,9.30
2023-02-12T10:48:04.020Z,9.30
2023-02-12T10:53:13.079Z,9.30
2023-02-12T10:58:24.292Z,9.40
2023-02-12T11:03:34.280Z,9.40
2023-02-12T11:08:39.205Z,9.40
2023-02-12T11:13:49.019Z,9.50
2023-02-12T11:19:00.444Z,9.50
2023-02-12T11:24:30.081Z,9.50
2023-02-12T11:29:35.126Z,9.50
2023-02-12T11:34:39.044Z,9.40
2023-02-12T11:39:48.158Z,9.40
2023-02-12T11:44:56.461Z,9.50
2023-02-12T11:50:04.904Z,9.50
2023-02-12T11:55:21.819Z,9.50
2023-02-12T12:00:29.567Z,9.50
2023-02-12T12:05:37.672Z,9.60
2023-02-12T12:10:47.864Z,9.60
2023-02-12T12:16:18.742Z,9.60
2023-02-12T12:21:31.977Z,9.60
2023-02-12T12:26:36.945Z,9.70
2023-02-12T12:31:45.493Z,9.70
2023-02-12T12:37:20.611Z,9.70
2023-02-12T12:42:58.956Z,9.70
2023-02-12T12:48:16.300Z,9.70
2023-02-12T12:53:36.058Z,9.70
2023-02-12T12:58:52.392Z,9.70
2023-02-12T13:04:20.913Z,9.80
2023-02-12T13:09:46.933Z,9.80
2023-02-12T13:14:57.183Z,9.80
2023-02-12T13:20:11.592Z,9.80
2023-02-12T13:25:25.070Z,9.80
2023-02-12T13:30:34.783Z,9.80
2023-02-12T13:35:44.381Z,9.80
2023-02-12T13:40:50.151Z,9.80
2023-02-12T13:46:00.843Z,9.90
2023-02-12T13:51:16.921Z,9.90
2023-02-12T13:56:38.813Z,9.90
2023-02-12T14:01:47.468Z,9.90
2023-02-12T14:07:01.045Z,9.90
2023-02-12T14:12:07.860Z,9.90
2023-02-12T14:17:57.522Z,9.90
2023-02-12T14:23:22.278Z,9.90
2023-02-12T14:28:30.882Z,9.90
2023-02-12T14:33:34.603Z,9.90
2023-02-12T14:39:07.398Z,9.90
2023-02-12T14:44:49.194Z,9.90
2023-02-12T14:49:55.914Z,9.90
2023-02-12T14:55:03.748Z,9.90
2023-02-12T15:00:24.250Z,9.90
2023-02-12T15:05:31.540Z,9.90
2023-02-12T15:10:41.410Z,9.90
2023-02-12T15:15:51.869Z,9.90
2023-02-12T15:21:01.125Z,9.90
2023-02-12T15:26:07.758Z,9.90
2023-02-12T15:31:16.306Z,9.90
2023-02-12T15:36:22.139Z,9.90
2023-02-12T15:41:30.214Z,9.90
2023-02-12T15:46:34.187Z,9.80
2023-02-12T15:51:41.702Z,9.80
2023-02-12T15:56:46.877Z,9.80
2023-02-12T16:01:59.477Z,9.80
2023-02-12T16:07:03.389Z,9.80
2023-02-12T16:12:14.220Z,9.70
2023-02-12T16:17:29.298Z,9.70
2023-02-12T16:22:36.878Z,9.70
2023-02-12T16:27:43.316Z,9.70
2023-02-12T16:32:47.215Z,9.70
2023-02-12T16:37:52.259Z,9.60
2023-02-12T16:43:08.001Z,9.60
2023-02-12T16:48:26.334Z,9.60
2023-02-12T16:53:43.554Z,9.60
2023-02-12T16:58:51.892Z,9.50
2023-02-12T17:03:57.798Z,9.50
2023-02-12T17:09:01.949Z,9.50
2023-02-12T17:14:07.310Z,9.50
2023-02-12T17:19:11.229Z,9.50
2023-02-12T17:24:19.885Z,9.40
2023-02-12T17:29:26.519Z,9.40
2023-02-12T17:34:39.702Z,9.40
2023-02-12T17:39:50.566Z,9.40
2023-02-12T17:44:55.708Z,9.40
2023-02-12T17:50:00.973Z,9.40
2023-02-12T17:55:05.772Z,9.30
2023-02-12T18:00:14.058Z,9.30
2023-02-12T18:05:24.645Z,9.30
2023-02-12T18:10:28.420Z,9.30
2023-02-12T18:15:33.619Z,9.30
2023-02-12T18:20:37.742Z,9.30
2023-02-12T18:25:42.482Z,9.30
2023-02-12T18:30:47.745Z,9.30
2023-02-12T18:35:59.861Z,9.30
2023-02-12T18:41:08.003Z,9.20
2023-02-12T18:46:14.963Z,9.20
2023-02-12T18:51:22.313Z,9.20
2023-02-12T18:56:26.046Z,9.20
2023-02-12T19:01:32.160Z,9.20
2023-02-12T19:06:41.343Z,9.20
2023-02-12T19:11:46.844Z,9.20
2023-02-12T19:16:52.224Z,9.10
2023-02-12T19:21:56.285Z,9.10
2023-02-12T19:27:00.092Z,9.10
2023-02-12T19:32:05.558Z,9.10
2023-02-12T19:37:11.022Z,9.10
2023-02-12T19:42:17.281Z,9.10
2023-02-12T19:47:22.366Z,9.10
2023-02-12T19:52:26.060Z,9.10
2023-02-12T19:57:29.767Z,9.10
2023-02-12T20:02:34.883Z,9.10
2023-02-12T20:07:38.747Z,9.10
2023-02-12T20:12:42.640Z,9.10
2023-02-12T20:17:47.707Z,9.10
2023-02-12T20:22:51.470Z,9.10
2023-02-12T20:27:55.355Z,9.10
2023-02-12T20:33:00.518Z,9.10
2023-02-12T20:38:04.827Z,9.10
2023-02-12T20:43:08.543Z,9.00
2023-02-12T20:48:13.609Z,9.00
2023-02-12T20:53:17.373Z,9.00
2023-02-12T20:58:21.157Z,9.00
2023-02-12T21:08:36.718Z,9.00
2023-02-12T21:13:40.406Z,9.00
2023-02-12T21:18:45.954Z,8.90
2023-02-12T21:23:50.759Z,8.90
2023-02-12T21:28:56.492Z,8.90
2023-02-12T21:34:03.157Z,8.90
2023-02-12T21:39:08.428Z,8.90
2023-02-12T21:44:14.664Z,8.90
2023-02-12T21:49:24.938Z,8.90
2023-02-12T21:54:29.239Z,8.90
2023-02-12T21:59:33.042Z,8.90
2023-02-12T22:04:38.078Z,8.90
2023-02-12T22:09:41.742Z,8.90
2023-02-12T22:14:45.453Z,8.90
2023-02-12T22:19:50.463Z,8.90
2023-02-12T22:24:54.268Z,8.90
2023-02-12T22:29:58.012Z,8.90
2023-02-12T22:35:03.074Z,8.90
2023-02-12T22:40:08.199Z,8.80
2023-02-12T22:45:12.077Z,8.80
2023-02-12T22:50:17.367Z,8.80
2023-02-12T22:55:21.144Z,8.80
2023-02-12T23:00:24.944Z,8.80
2023-02-12T23:05:30.056Z,8.80
2023-02-12T23:10:34.181Z,8.80
2023-02-12T23:15:38.056Z,8.80
2023-02-12T23:20:43.127Z,8.80
2023-02-12T23:25:47.110Z,8.80
2023-02-12T23:30:52.132Z,8.80
2023-02-12T23:35:57.388Z,8.80
2023-02-12T23:41:01.222Z,8.80
2023-02-12T23:46:05.105Z,8.80
2023-02-12T23:51:10.248Z,8.80
2023-02-12T23:56:13.971Z,8.80
